This is the latest recevied weather packets stored in our database for station/object KD8NVS-13. If no packets are shown the sender has not sent any weather packets the latest 10 day(s).
| Time | Temp. | Humidity | Pressure | Rain* | Wind** | Luminosity | Snow |
|---|---|---|---|---|---|---|---|
| 1777390620 | 18.33° C | 89% | 1004.2 hPa | 0 mm | - | 258 W/m² | - |
| 1777390316 | 18.33° C | 91% | 1003.8 hPa | 0 mm | - | 242 W/m² | - |
| 1777390012 | 18.33° C | 90% | 1004.2 hPa | 0 mm | - | 152 W/m² | - |
| 1777389709 | 17.78° C | 91% | 1004.2 hPa | 0 mm | - | 197 W/m² | - |
| 1777389406 | 17.78° C | 90% | 1003.8 hPa | 0 mm | - | 189 W/m² | - |
| 1777389104 | 17.78° C | 91% | 1003.8 hPa | 0 mm | - | 272 W/m² | - |
| 1777388801 | 17.78° C | 91% | 1003.8 hPa | 0 mm | - | 200 W/m² | - |
| 1777388498 | 18.33° C | 91% | 1003.8 hPa | 0 mm | - | 227 W/m² | - |
| 1777388192 | 17.78° C | 91% | 1003.5 hPa | 0 mm | - | 291 W/m² | - |
| 1777387888 | 18.33° C | 89% | 1003.8 hPa | 0 mm | - | 247 W/m² | - |
| 1777387585 | 17.78° C | 93% | 1003.5 hPa | 0 mm | - | 606 W/m² | - |
| 1777387281 | 17.22° C | 93% | 1003.5 hPa | 0 mm | - | 340 W/m² | - |
| 1777386975 | 16.67° C | 95% | 1003.2 hPa | 0 mm | - | 245 W/m² | - |
| 1777386673 | 16.67° C | 95% | 1003.2 hPa | 0 mm | - | 219 W/m² | - |
| 1777386370 | 16.67° C | 95% | 1003.5 hPa | 0 mm | - | 137 W/m² | - |
| 1777386067 | 16.67° C | 94% | 1003.5 hPa | 0 mm | - | 87 W/m² | - |
| 1777385764 | 16.67° C | 94% | 1003.5 hPa | 0 mm | - | 74 W/m² | - |
| 1777385461 | 16.67° C | 95% | 1003.5 hPa | 0 mm | - | 127 W/m² | - |
| 1777385157 | 16.67° C | 95% | 1003.2 hPa | 0 mm | - | 92 W/m² | - |
| 1777384853 | 16.67° C | 94% | 1003.5 hPa | 0 mm | - | 70 W/m² | - |
| 1777384550 | 16.11° C | 94% | 1003.2 hPa | 0 mm | - | 63 W/m² | - |
| 1777384245 | 16.11° C | 94% | 1003.2 hPa | 0 mm | - | 97 W/m² | - |
| 1777383941 | 16.11° C | 94% | 1002.8 hPa | 0 mm | - | 72 W/m² | - |
| 1777383637 | 16.11° C | 94% | 1002.8 hPa | 0 mm | - | 88 W/m² | - |
| 1777383334 | 16.11° C | 93% | 1003.2 hPa | 0 mm | - | 61 W/m² | - |
* Rain latest hour (hover to see other rain measurements)
** Current wind speed in m/s (hover to see current wind gust speed)